Time;durP1;ratioP1;P1;durP2;ratioP2;P2;SDS_P1;SDS_P2;PMS_P1;PMS_P2;Temp;Humidity;BMP_temperature;BMP_pressure;BME280_temperature;BME280_humidity;BME280_pressure;Samples;Min_cycle;Max_cycle;Signal;HPM_P1;HPM_P2
2023/12/07 00:01:39;;;;;;;11.30;5.03;;;;;;;3.74;100.00;96514.84;5014267;28;20206;-69
2023/12/07 00:04:05;;;;;;;8.30;4.43;;;;;;;3.68;100.00;96517.94;5018949;28;20230;-69
2023/12/07 00:06:33;;;;;;;9.87;4.53;;;;;;;3.87;100.00;96515.44;5015719;28;20296;-69
2023/12/07 00:09:00;;;;;;;9.73;5.13;;;;;;;3.62;100.00;96520.25;5019011;28;20227;-69
2023/12/07 00:11:27;;;;;;;10.63;5.17;;;;;;;3.68;100.00;96523.16;5015029;28;20248;-69
2023/12/07 00:13:54;;;;;;;9.47;4.97;;;;;;;3.64;100.00;96518.34;5018189;28;20205;-70
2023/12/07 00:16:20;;;;;;;14.20;5.13;;;;;;;3.57;100.00;96516.38;5017379;28;20205;-69
2023/12/07 00:18:47;;;;;;;9.17;5.03;;;;;;;3.62;100.00;96521.06;5007664;28;20681;-70
2023/12/07 00:21:13;;;;;;;14.87;5.33;;;;;;;3.64;100.00;96528.78;5013307;28;20598;-69
2023/12/07 00:23:41;;;;;;;10.80;5.10;;;;;;;3.77;100.00;96527.59;5008358;28;21214;-70
2023/12/07 00:26:08;;;;;;;14.07;5.07;;;;;;;3.68;100.00;96537.97;5012207;28;20205;-69
2023/12/07 00:28:34;;;;;;;11.27;5.03;;;;;;;3.62;100.00;96533.28;5017142;28;20244;-70
2023/12/07 00:31:01;;;;;;;11.30;5.20;;;;;;;3.56;100.00;96530.34;5017289;28;20716;-70
2023/12/07 00:33:28;;;;;;;9.83;4.10;;;;;;;3.58;100.00;96541.44;5017049;28;20217;-69
2023/12/07 00:35:54;;;;;;;8.87;4.53;;;;;;;3.59;100.00;96536.13;5017032;28;20212;-70
2023/12/07 00:38:21;;;;;;;9.27;4.53;;;;;;;3.57;100.00;96534.63;5016695;28;20219;-69
2023/12/07 00:40:49;;;;;;;8.90;3.90;;;;;;;3.69;100.00;96543.06;5012802;28;20224;-70
2023/12/07 00:43:16;;;;;;;11.07;4.30;;;;;;;3.44;100.00;96541.81;5016944;28;20213;-69
2023/12/07 00:45:43;;;;;;;11.87;5.00;;;;;;;3.61;100.00;96547.25;5016555;28;20237;-69
2023/12/07 00:48:09;;;;;;;15.90;4.60;;;;;;;3.62;100.00;96550.69;5016330;28;20216;-70
2023/12/07 00:50:36;;;;;;;9.37;4.63;;;;;;;3.60;100.00;96547.38;5017199;28;20236;-69
2023/12/07 00:53:02;;;;;;;7.87;3.90;;;;;;;3.57;100.00;96552.84;5016171;28;20702;-70
2023/12/07 00:55:29;;;;;;;9.17;4.43;;;;;;;3.67;100.00;96555.38;5008894;28;20205;-70
2023/12/07 00:57:57;;;;;;;9.17;4.20;;;;;;;3.84;100.00;96552.16;5011422;28;20200;-69
2023/12/07 01:00:23;;;;;;;8.47;4.13;;;;;;;3.72;100.00;96553.22;5017383;28;20236;-70
2023/12/07 01:02:51;;;;;;;8.27;3.83;;;;;;;3.75;100.00;96552.94;5018212;28;20221;-69
2023/12/07 01:05:17;;;;;;;9.33;4.63;;;;;;;3.58;100.00;96551.88;5015538;28;20263;-69
2023/12/07 01:07:44;;;;;;;9.70;4.50;;;;;;;3.73;100.00;96551.44;5016876;28;20216;-70
2023/12/07 01:10:10;;;;;;;9.17;4.50;;;;;;;3.63;100.00;96553.97;5014786;28;20233;-70
2023/12/07 01:12:37;;;;;;;11.57;4.43;;;;;;;3.64;100.00;96553.03;5015373;28;20232;-69
2023/12/07 01:15:06;;;;;;;11.03;4.73;;;;;;;3.74;100.00;96553.91;5008535;28;20208;-70
2023/12/07 01:17:32;;;;;;;7.73;3.70;;;;;;;3.66;100.00;96558.09;5007110;28;20205;-69
2023/12/07 01:19:59;;;;;;;11.07;4.30;;;;;;;3.64;100.00;96555.63;5013083;28;20228;-69
2023/12/07 01:22:25;;;;;;;8.80;3.73;;;;;;;3.68;100.00;96562.25;5010323;28;20217;-69
2023/12/07 01:24:52;;;;;;;6.73;3.60;;;;;;;3.65;100.00;96566.88;5009844;28;20212;-69
2023/12/07 01:27:18;;;;;;;8.93;3.67;;;;;;;3.70;100.00;96572.53;5016912;28;20213;-69
2023/12/07 01:29:45;;;;;;;7.53;3.90;;;;;;;3.70;100.00;96570.78;5016431;28;20232;-68
2023/12/07 01:32:12;;;;;;;7.97;3.73;;;;;;;3.81;100.00;96565.47;5017558;28;20213;-70
2023/12/07 01:34:39;;;;;;;10.70;4.60;;;;;;;3.64;100.00;96576.47;5010109;28;20201;-69
2023/12/07 01:37:05;;;;;;;9.83;4.47;;;;;;;3.73;100.00;96585.31;5016345;28;20209;-69
2023/12/07 01:39:32;;;;;;;9.10;4.00;;;;;;;3.63;100.00;96577.44;5010910;28;20235;-69
2023/12/07 01:41:59;;;;;;;7.17;3.73;;;;;;;3.64;100.00;96597.31;5017971;28;20219;-70
2023/12/07 01:44:27;;;;;;;8.30;3.93;;;;;;;3.45;100.00;96588.56;5015699;28;20570;-69
2023/12/07 01:46:54;;;;;;;10.53;4.90;;;;;;;3.59;100.00;96592.63;5011205;28;20210;-69
2023/12/07 01:49:23;;;;;;;10.90;4.60;;;;;;;3.65;100.00;96591.16;5016676;28;20228;-69
2023/12/07 01:51:49;;;;;;;10.83;4.50;;;;;;;3.49;100.00;96602.13;5011515;28;20551;-69
2023/12/07 01:54:16;;;;;;;8.77;4.87;;;;;;;3.50;100.00;96598.56;5006954;28;20206;-69
2023/12/07 01:56:43;;;;;;;7.80;3.90;;;;;;;3.59;100.00;96590.00;5005905;28;20671;-69
2023/12/07 01:59:11;;;;;;;10.03;4.17;;;;;;;3.63;100.00;96595.66;5016046;28;20201;-70
2023/12/07 02:01:38;;;;;;;9.13;4.07;;;;;;;3.60;100.00;96594.28;5016413;28;20204;-69
2023/12/07 02:04:05;;;;;;;8.37;3.93;;;;;;;3.53;100.00;96590.53;5012275;28;20205;-69
2023/12/07 02:06:33;;;;;;;9.00;4.13;;;;;;;3.63;100.00;96595.66;5015376;28;20564;-69
2023/12/07 02:08:59;;;;;;;9.80;3.97;;;;;;;3.46;100.00;96592.78;5021906;28;20225;-69
2023/12/07 02:11:26;;;;;;;9.10;4.63;;;;;;;3.43;100.00;96602.66;5025236;28;20300;-69
2023/12/07 02:13:55;;;;;;;10.40;5.07;;;;;;;3.43;100.00;96593.03;5021364;28;20205;-69
2023/12/07 02:16:30;;;;;;;8.67;4.33;;;;;;;3.68;100.00;96590.91;5024493;28;20304;-69
2023/12/07 02:19:03;;;;;;;8.90;4.17;;;;;;;3.62;100.00;96587.16;5018884;28;20198;-69
2023/12/07 02:21:35;;;;;;;11.37;4.60;;;;;;;3.57;100.00;96594.53;5017208;28;20204;-69
2023/12/07 02:24:03;;;;;;;9.60;4.63;;;;;;;3.49;100.00;96592.56;5018604;28;20213;-69
2023/12/07 02:26:34;;;;;;;10.87;3.93;;;;;;;3.57;100.00;96594.53;5019899;28;20207;-69
2023/12/07 02:29:01;;;;;;;7.73;4.10;;;;;;;3.34;100.00;96598.19;5017737;28;20218;-69
2023/12/07 02:31:28;;;;;;;13.30;4.83;;;;;;;3.18;100.00;96597.75;5020357;28;20216;-69
2023/12/07 02:33:54;;;;;;;8.03;4.00;;;;;;;3.25;100.00;96588.53;5019692;28;20213;-69
2023/12/07 02:36:27;;;;;;;9.93;4.73;;;;;;;3.37;100.00;96590.94;5014200;28;20589;-69
2023/12/07 02:38:58;;;;;;;11.37;4.63;;;;;;;3.39;100.00;96586.44;5016090;28;20212;-69
2023/12/07 02:41:25;;;;;;;10.93;4.43;;;;;;;3.15;100.00;96598.03;5020309;28;20212;-69
2023/12/07 02:43:53;;;;;;;12.20;4.90;;;;;;;3.25;100.00;96599.75;5019785;28;20198;-69
2023/12/07 02:46:20;;;;;;;10.17;5.33;;;;;;;3.13;100.00;96598.16;5017482;28;20219;-69
2023/12/07 02:48:47;;;;;;;10.97;5.30;;;;;;;3.16;100.00;96595.28;5021221;28;20212;-69
2023/12/07 02:51:13;;;;;;;13.33;5.13;;;;;;;3.14;100.00;96596.34;5018040;28;20232;-69
2023/12/07 02:53:39;;;;;;;10.70;4.87;;;;;;;3.08;100.00;96594.25;5018126;28;20218;-70
2023/12/07 02:56:07;;;;;;;10.43;4.63;;;;;;;3.13;100.00;96597.31;5017625;28;20209;-69
2023/12/07 02:58:33;;;;;;;9.53;4.13;;;;;;;3.09;100.00;96595.91;5020744;28;20207;-69
2023/12/07 03:01:01;;;;;;;10.97;4.83;;;;;;;3.18;100.00;96592.56;5016765;28;20232;-69
2023/12/07 03:03:28;;;;;;;8.70;4.93;;;;;;;3.08;100.00;96597.69;5018969;28;20201;-69
2023/12/07 03:05:54;;;;;;;11.50;5.50;;;;;;;3.19;100.00;96604.63;5015182;28;20219;-69
2023/12/07 03:08:20;;;;;;;9.20;4.30;;;;;;;3.14;100.00;96602.41;5017832;28;20687;-69
2023/12/07 03:10:47;;;;;;;11.40;4.60;;;;;;;3.09;100.00;96608.91;5016512;28;20696;-69
2023/12/07 03:13:13;;;;;;;8.97;4.73;;;;;;;2.95;100.00;96601.38;5018188;28;20283;-69
2023/12/07 03:15:40;;;;;;;7.40;3.70;;;;;;;3.00;100.00;96606.22;5018236;28;20215;-70
2023/12/07 03:18:08;;;;;;;7.07;3.73;;;;;;;3.12;100.00;96608.69;5016006;28;20209;-69
2023/12/07 03:20:35;;;;;;;10.83;5.03;;;;;;;3.13;100.00;96605.13;5018069;28;20227;-69
2023/12/07 03:23:01;;;;;;;7.33;3.50;;;;;;;3.06;100.00;96603.97;5015358;28;20214;-69
2023/12/07 03:25:28;;;;;;;9.33;3.97;;;;;;;2.98;100.00;96601.16;5018151;28;20212;-69
2023/12/07 03:27:54;;;;;;;7.47;3.80;;;;;;;2.89;100.00;96601.91;5015551;28;20212;-70
2023/12/07 03:30:21;;;;;;;7.10;3.87;;;;;;;2.73;100.00;96601.44;5014877;28;20239;-70
2023/12/07 03:32:47;;;;;;;8.40;3.90;;;;;;;2.93;100.00;96592.88;5015416;28;20207;-70
2023/12/07 03:35:15;;;;;;;9.70;4.10;;;;;;;2.88;100.00;96592.41;5016669;28;20205;-70
2023/12/07 03:37:41;;;;;;;11.37;4.00;;;;;;;2.91;100.00;96599.97;5014833;28;20204;-70
2023/12/07 03:40:09;;;;;;;7.40;3.73;;;;;;;2.73;100.00;96601.44;5019152;28;20683;-71
2023/12/07 03:42:35;;;;;;;7.07;3.33;;;;;;;2.57;100.00;96594.94;5019918;28;20211;-70
2023/12/07 03:45:02;;;;;;;12.53;4.67;;;;;;;2.80;100.00;96607.81;5017941;28;20202;-71
2023/12/07 03:47:28;;;;;;;9.60;3.67;;;;;;;2.88;100.00;96600.22;5018371;28;20207;-70
2023/12/07 03:49:55;;;;;;;8.83;4.00;;;;;;;2.90;100.00;96608.72;5017371;28;20241;-70
2023/12/07 03:52:23;;;;;;;11.37;4.80;;;;;;;3.03;100.00;96604.22;5015995;28;20203;-70
2023/12/07 03:54:49;;;;;;;10.40;4.80;;;;;;;2.73;100.00;96606.63;5016773;28;20205;-71
2023/12/07 03:57:15;;;;;;;9.37;4.73;;;;;;;2.83;100.00;96601.56;5016654;28;20207;-70
2023/12/07 03:59:42;;;;;;;10.03;4.87;;;;;;;2.61;100.00;96605.00;5011878;28;20599;-70
2023/12/07 04:02:08;;;;;;;10.03;4.90;;;;;;;2.77;100.00;96608.03;5018394;28;20205;-70
2023/12/07 04:04:35;;;;;;;12.17;4.80;;;;;;;2.78;100.00;96604.50;5021098;28;20212;-70
2023/12/07 04:07:01;;;;;;;11.33;4.73;;;;;;;2.94;100.00;96609.31;5020620;28;20214;-70
2023/12/07 04:09:30;;;;;;;9.50;4.03;;;;;;;2.96;100.00;96605.66;5018545;28;20238;-70
2023/12/07 04:11:57;;;;;;;10.73;4.20;;;;;;;2.97;100.00;96606.50;5017554;28;20648;-70
2023/12/07 04:14:23;;;;;;;9.73;4.33;;;;;;;2.70;100.00;96617.28;5019437;28;20211;-70
2023/12/07 04:16:50;;;;;;;10.03;3.77;;;;;;;2.63;100.00;96621.31;5018368;28;20215;-70
2023/12/07 04:19:16;;;;;;;8.10;4.30;;;;;;;2.54;100.00;96624.63;5018676;28;20221;-70
2023/12/07 04:21:43;;;;;;;10.00;3.97;;;;;;;2.51;100.00;96627.47;5021610;28;20205;-70
2023/12/07 04:24:09;;;;;;;13.63;4.13;;;;;;;2.46;100.00;96624.41;5018146;28;20210;-70
2023/12/07 04:26:37;;;;;;;11.17;4.40;;;;;;;2.67;100.00;96625.34;5018847;28;20211;-70
2023/12/07 04:29:04;;;;;;;9.03;4.30;;;;;;;2.63;100.00;96636.09;5018540;28;20203;-70
2023/12/07 04:31:30;;;;;;;10.10;4.47;;;;;;;2.56;100.00;96625.34;5016519;28;20222;-70
2023/12/07 04:33:57;;;;;;;10.50;4.87;;;;;;;2.46;100.00;96628.78;5018824;28;20579;-70
2023/12/07 04:36:23;;;;;;;9.37;3.97;;;;;;;2.65;100.00;96637.63;5019598;28;20590;-70
2023/12/07 04:38:49;;;;;;;13.57;5.13;;;;;;;2.67;100.00;96634.91;5017385;28;20194;-70
2023/12/07 04:41:16;;;;;;;10.53;5.20;;;;;;;2.61;100.00;96631.03;5018387;28;20234;-70
2023/12/07 04:43:44;;;;;;;11.73;5.33;;;;;;;2.75;100.00;96635.97;5018742;28;20202;-70
2023/12/07 04:46:11;;;;;;;15.73;5.87;;;;;;;2.64;100.00;96632.56;5015999;28;20214;-70
2023/12/07 04:48:37;;;;;;;10.57;4.23;;;;;;;2.62;100.00;96640.50;5017820;28;20651;-70
2023/12/07 04:51:04;;;;;;;11.70;4.83;;;;;;;2.40;100.00;96641.44;5018960;28;20235;-70
2023/12/07 04:53:31;;;;;;;10.87;5.00;;;;;;;2.57;100.00;96642.63;5017470;28;20213;-70
2023/12/07 04:55:58;;;;;;;12.57;4.60;;;;;;;2.48;100.00;96637.28;5017684;28;20297;-70
2023/12/07 04:58:24;;;;;;;13.37;5.17;;;;;;;2.63;100.00;96647.31;5019894;28;20651;-71
2023/12/07 05:00:52;;;;;;;11.17;4.83;;;;;;;2.73;100.00;96640.47;5016940;28;20220;-70
2023/12/07 05:03:19;;;;;;;12.33;5.33;;;;;;;2.73;100.00;96637.84;5020650;28;20204;-70
2023/12/07 05:05:45;;;;;;;10.10;4.90;;;;;;;2.67;100.00;96638.38;5015249;28;20206;-70
2023/12/07 05:08:12;;;;;;;9.70;4.63;;;;;;;2.67;100.00;96640.13;5014288;28;20324;-70
2023/12/07 05:10:39;;;;;;;10.00;4.80;;;;;;;2.79;100.00;96641.75;5017711;28;20351;-71
2023/12/07 05:13:05;;;;;;;10.30;4.77;;;;;;;2.80;100.00;96640.81;5026171;28;20250;-70
2023/12/07 05:15:32;;;;;;;15.23;6.40;;;;;;;2.86;100.00;96642.94;5022431;28;20214;-70
2023/12/07 05:18:00;;;;;;;13.23;5.03;;;;;;;3.01;100.00;96643.38;5016560;28;20216;-70
2023/12/07 05:20:28;;;;;;;10.23;4.73;;;;;;;2.91;100.00;96646.81;5014337;28;20235;-70
2023/12/07 05:22:54;;;;;;;12.40;5.10;;;;;;;2.73;100.00;96645.66;5009042;28;20206;-69
2023/12/07 05:25:21;;;;;;;14.50;5.07;;;;;;;2.51;100.00;96643.09;5017343;28;20654;-70
2023/12/07 05:27:48;;;;;;;16.17;5.83;;;;;;;2.63;100.00;96642.13;5017606;28;20850;-70
2023/12/07 05:30:15;;;;;;;12.73;5.97;;;;;;;2.86;100.00;96648.94;5015128;28;20240;-70
2023/12/07 05:32:41;;;;;;;12.47;5.43;;;;;;;2.85;100.00;96647.31;5015379;28;20215;-70
2023/12/07 05:35:09;;;;;;;11.73;5.27;;;;;;;2.98;100.00;96647.16;5016693;28;20299;-70
2023/12/07 05:37:36;;;;;;;13.23;5.83;;;;;;;2.73;100.00;96652.66;5016959;28;20215;-70
2023/12/07 05:40:03;;;;;;;11.97;5.30;;;;;;;2.77;100.00;96647.06;5013182;28;20255;-70
2023/12/07 05:42:30;;;;;;;12.17;5.83;;;;;;;2.63;100.00;96643.91;5015630;28;20207;-70
2023/12/07 05:44:57;;;;;;;13.67;5.20;;;;;;;2.67;100.00;96653.13;5013557;28;20221;-70
2023/12/07 05:47:23;;;;;;;11.67;5.80;;;;;;;2.79;100.00;96650.41;5012199;28;20227;-70
2023/12/07 05:49:50;;;;;;;12.30;5.20;;;;;;;2.86;100.00;96653.34;5013737;28;20221;-70
2023/12/07 05:52:18;;;;;;;9.37;4.33;;;;;;;3.00;100.00;96655.69;5013532;28;20213;-70
2023/12/07 05:54:46;;;;;;;13.77;5.53;;;;;;;2.91;100.00;96652.03;5011358;28;20207;-70
2023/12/07 05:57:13;;;;;;;10.47;5.07;;;;;;;2.74;100.00;96654.31;5014065;28;20203;-70
2023/12/07 05:59:41;;;;;;;9.83;4.70;;;;;;;2.79;100.00;96655.59;5014263;28;20233;-70
2023/12/07 06:02:08;;;;;;;12.80;6.23;;;;;;;2.82;100.00;96657.13;5012432;28;20206;-70
2023/12/07 06:04:34;;;;;;;13.27;6.07;;;;;;;2.77;100.00;96654.88;5012902;28;20223;-70
2023/12/07 06:07:02;;;;;;;16.43;6.03;;;;;;;2.82;100.00;96662.34;5012954;28;20209;-70
2023/12/07 06:09:30;;;;;;;15.43;6.30;;;;;;;3.02;100.00;96659.81;5011267;28;20325;-70
2023/12/07 06:11:57;;;;;;;15.67;6.77;;;;;;;2.79;100.00;96653.00;5011737;28;20351;-70
2023/12/07 06:14:23;;;;;;;14.77;6.07;;;;;;;2.76;100.00;96658.47;5011901;28;20212;-70
2023/12/07 06:16:50;;;;;;;11.27;5.77;;;;;;;2.85;100.00;96654.28;5012636;28;20216;-70
2023/12/07 06:19:16;;;;;;;14.43;5.47;;;;;;;2.87;100.00;96666.22;5013239;28;20223;-70
2023/12/07 06:21:44;;;;;;;12.30;5.27;;;;;;;2.89;100.00;96664.34;5012773;28;20219;-71
2023/12/07 06:24:10;;;;;;;14.30;6.00;;;;;;;2.84;100.00;96665.63;5014693;28;20208;-70
2023/12/07 06:26:38;;;;;;;18.27;7.33;;;;;;;2.94;100.00;96664.81;5007119;28;20593;-71
2023/12/07 06:29:07;;;;;;;22.13;8.77;;;;;;;2.77;100.00;96670.50;4998984;28;20241;-70
2023/12/07 06:31:34;;;;;;;19.30;8.50;;;;;;;2.72;100.00;96670.03;4997923;28;20252;-70
2023/12/07 06:34:01;;;;;;;16.93;8.30;;;;;;;2.87;100.00;96666.22;4996996;28;20214;-70
2023/12/07 06:36:27;;;;;;;19.60;7.87;;;;;;;2.80;100.00;96665.06;4997912;28;20228;-71
2023/12/07 06:38:55;;;;;;;22.67;8.70;;;;;;;2.87;100.00;96674.03;4997888;28;20227;-71
2023/12/07 06:41:22;;;;;;;22.30;8.97;;;;;;;2.93;100.00;96670.97;4997719;28;20232;-71
2023/12/07 06:43:50;;;;;;;15.17;6.50;;;;;;;3.04;100.00;96663.13;4997511;28;20639;-70
2023/12/07 06:46:17;;;;;;;14.90;6.03;;;;;;;2.95;100.00;96674.25;4997884;28;20208;-71
2023/12/07 06:48:43;;;;;;;13.33;6.37;;;;;;;2.85;100.00;96667.28;4997758;28;20281;-70
2023/12/07 06:51:10;;;;;;;12.00;5.27;;;;;;;2.92;100.00;96668.50;4997573;28;21129;-71
2023/12/07 06:53:36;;;;;;;16.57;6.03;;;;;;;2.94;100.00;96674.38;4999996;28;20908;-69
2023/12/07 06:56:03;;;;;;;17.27;7.07;;;;;;;2.64;100.00;96669.78;5005031;28;20598;-71
2023/12/07 06:58:29;;;;;;;18.43;6.03;;;;;;;2.81;100.00;96677.09;5001122;28;20209;-70
2023/12/07 07:00:57;;;;;;;14.40;6.77;;;;;;;3.02;100.00;96673.66;5004525;28;20231;-70
2023/12/07 07:03:24;;;;;;;14.47;6.47;;;;;;;2.83;100.00;96675.22;5009822;28;20210;-71
2023/12/07 07:05:51;;;;;;;18.17;6.63;;;;;;;2.89;100.00;96668.72;4999816;28;20196;-72
2023/12/07 07:08:17;;;;;;;14.30;5.90;;;;;;;2.88;100.00;96677.47;5002148;28;20723;-71
2023/12/07 07:10:44;;;;;;;16.10;5.90;;;;;;;2.98;100.00;96673.19;4998937;28;20229;-70
2023/12/07 07:13:11;;;;;;;16.47;6.80;;;;;;;2.79;100.00;96673.81;5004583;28;21044;-71
2023/12/07 07:15:37;;;;;;;12.00;5.43;;;;;;;2.77;100.00;96670.50;5005234;28;20216;-70
2023/12/07 07:18:05;;;;;;;13.17;5.53;;;;;;;2.84;100.00;96669.09;5004885;28;20224;-71
2023/12/07 07:20:32;;;;;;;15.70;6.57;;;;;;;2.78;100.00;96669.56;5005521;28;20569;-70
2023/12/07 07:22:58;;;;;;;12.77;5.80;;;;;;;2.79;100.00;96671.22;5006878;28;20210;-71
2023/12/07 07:25:25;;;;;;;13.93;5.97;;;;;;;2.66;100.00;96673.13;5004994;28;20212;-71
2023/12/07 07:27:52;;;;;;;15.53;6.47;;;;;;;2.71;100.00;96671.00;5005001;28;20522;-71
2023/12/07 07:30:18;;;;;;;27.90;6.60;;;;;;;2.77;100.00;96670.50;5004738;28;20253;-71
2023/12/07 07:32:45;;;;;;;16.67;7.23;;;;;;;2.82;100.00;96668.38;5005643;28;20207;-70
2023/12/07 07:35:13;;;;;;;18.97;7.27;;;;;;;2.95;100.00;96669.06;5004328;28;21032;-71
2023/12/07 07:37:41;;;;;;;16.17;7.47;;;;;;;2.76;100.00;96668.88;5007154;28;20750;-71
2023/12/07 07:40:11;;;;;;;16.70;6.90;;;;;;;2.82;100.00;96668.38;5006275;28;20276;-70
2023/12/07 07:42:38;;;;;;;15.93;6.50;;;;;;;2.85;100.00;96673.34;5005731;28;20253;-71
2023/12/07 07:45:06;;;;;;;14.23;6.40;;;;;;;2.92;100.00;96669.31;5006289;28;20577;-71
2023/12/07 07:47:33;;;;;;;12.60;5.73;;;;;;;2.90;100.00;96679.00;5004552;28;20729;-71
2023/12/07 07:50:04;;;;;;;13.30;5.30;;;;;;;2.75;100.00;96677.59;5000233;28;20242;-70
2023/12/07 07:52:33;;;;;;;14.00;5.80;;;;;;;2.95;100.00;96674.25;5002276;28;20228;-70
2023/12/07 07:55:00;;;;;;;16.83;6.27;;;;;;;2.93;100.00;96668.38;5019474;28;20214;-70
2023/12/07 07:57:27;;;;;;;17.20;5.60;;;;;;;2.88;100.00;96672.25;5017926;28;20227;-71
2023/12/07 07:59:53;;;;;;;15.30;5.87;;;;;;;2.86;100.00;96668.97;5017094;28;20705;-70
2023/12/07 08:02:21;;;;;;;11.63;5.53;;;;;;;3.16;100.00;96668.19;5026253;28;20540;-70
2023/12/07 08:04:47;;;;;;;13.87;5.97;;;;;;;3.07;100.00;96662.91;5023011;28;20203;-70
2023/12/07 08:07:14;;;;;;;17.13;5.87;;;;;;;3.09;100.00;96671.41;5020538;28;20577;-70
2023/12/07 08:09:42;;;;;;;12.37;5.53;;;;;;;4.25;100.00;96653.81;5006472;28;20228;-70
2023/12/07 08:12:09;;;;;;;17.50;6.50;;;;;;;4.84;100.00;96656.44;5009594;28;20228;-71
2023/12/07 08:14:36;;;;;;;13.13;6.40;;;;;;;4.56;100.00;96655.50;5024168;28;20258;-70
2023/12/07 08:17:03;;;;;;;14.13;6.33;;;;;;;4.27;100.00;96654.53;5018215;28;20213;-70
2023/12/07 08:19:30;;;;;;;11.30;5.43;;;;;;;3.95;100.00;96659.00;5020591;28;20279;-70
2023/12/07 08:21:56;;;;;;;13.17;6.07;;;;;;;3.54;100.00;96662.50;5023225;28;20197;-70
2023/12/07 08:24:23;;;;;;;13.00;5.63;;;;;;;3.55;100.00;96666.75;5020038;28;20224;-70
2023/12/07 08:26:51;;;;;;;15.90;6.67;;;;;;;3.67;100.00;96659.59;5019993;28;20207;-70
2023/12/07 08:29:18;;;;;;;11.60;5.30;;;;;;;3.56;100.00;96661.44;5023065;28;20234;-70
2023/12/07 08:31:44;;;;;;;14.60;5.83;;;;;;;3.69;100.00;96662.91;5018821;28;20566;-70
2023/12/07 08:34:11;;;;;;;10.87;5.10;;;;;;;3.63;100.00;96663.41;5024040;28;20213;-70
2023/12/07 08:36:37;;;;;;;14.87;6.30;;;;;;;3.73;100.00;96664.31;5020009;28;20232;-70
2023/12/07 08:39:04;;;;;;;12.43;5.40;;;;;;;3.75;100.00;96656.38;5022117;28;20221;-70
2023/12/07 08:41:30;;;;;;;12.70;5.37;;;;;;;3.74;100.00;96659.94;5019451;28;20201;-70
2023/12/07 08:43:58;;;;;;;12.10;5.87;;;;;;;3.56;100.00;96652.78;5022254;28;20214;-70
2023/12/07 08:46:25;;;;;;;12.57;5.67;;;;;;;3.67;100.00;96657.00;5022907;28;20217;-70
2023/12/07 08:48:52;;;;;;;15.07;5.63;;;;;;;3.79;100.00;96662.97;5021119;28;20631;-70
2023/12/07 08:51:18;;;;;;;11.63;4.47;;;;;;;3.81;100.00;96666.31;5024579;28;20643;-70
2023/12/07 08:53:45;;;;;;;11.43;5.40;;;;;;;3.79;100.00;96663.84;5024050;28;20206;-70
2023/12/07 08:56:12;;;;;;;14.60;6.27;;;;;;;3.62;100.00;96662.72;5012125;28;20212;-70
2023/12/07 08:58:39;;;;;;;12.10;4.87;;;;;;;3.53;100.00;96671.28;5007626;28;20681;-71
2023/12/07 09:01:07;;;;;;;9.20;4.27;;;;;;;3.98;100.00;96658.72;5006125;28;20316;-71
2023/12/07 09:03:34;;;;;;;13.07;5.67;;;;;;;3.91;100.00;96655.00;5008241;28;20576;-71
2023/12/07 09:06:01;;;;;;;9.93;5.40;;;;;;;3.63;100.00;96667.81;5006151;28;20699;-70
2023/12/07 09:08:28;;;;;;;12.60;5.67;;;;;;;3.98;100.00;96661.34;5012212;28;20217;-71
2023/12/07 09:10:54;;;;;;;11.70;5.33;;;;;;;3.79;100.00;96663.84;5006196;28;20236;-69
2023/12/07 09:13:21;;;;;;;11.50;5.40;;;;;;;3.80;100.00;96668.06;5005127;28;20213;-71
2023/12/07 09:15:47;;;;;;;13.90;6.10;;;;;;;3.47;100.00;96677.81;4999902;28;20205;-71
2023/12/07 09:18:15;;;;;;;15.87;7.23;;;;;;;3.74;100.00;96676.41;5004896;28;20209;-71
2023/12/07 09:20:45;;;;;;;16.20;6.70;;;;;;;3.82;100.00;96674.00;5007019;28;20222;-71
2023/12/07 09:23:12;;;;;;;14.77;6.20;;;;;;;3.77;100.00;96672.72;5008553;28;20201;-70
2023/12/07 09:25:39;;;;;;;13.47;5.83;;;;;;;4.72;100.00;96674.94;5000015;28;20210;-71
2023/12/07 09:28:05;;;;;;;13.43;5.77;;;;;;;5.69;100.00;96667.06;4998927;28;20217;-70
2023/12/07 09:30:33;;;;;;;14.40;6.60;;;;;;;5.45;100.00;96671.03;5006650;28;20241;-70
2023/12/07 09:33:02;;;;;;;15.73;6.27;;;;;;;4.97;100.00;96672.69;5005112;28;20230;-70
2023/12/07 09:35:30;;;;;;;14.47;6.03;;;;;;;4.79;100.00;96677.88;5005491;28;20214;-70
2023/12/07 09:37:56;;;;;;;12.40;5.17;;;;;;;4.81;100.00;96668.09;5003755;28;20213;-71
2023/12/07 09:40:25;;;;;;;12.73;5.70;;;;;;;4.84;100.00;96661.66;5005844;28;20222;-71
2023/12/07 09:42:52;;;;;;;13.73;5.93;;;;;;;4.77;100.00;96671.94;4999449;28;20297;-71
2023/12/07 09:45:19;;;;;;;9.83;5.13;;;;;;;4.62;100.00;96671.47;4999500;28;20221;-69
2023/12/07 09:47:49;;;;;;;17.17;5.10;;;;;;;4.30;100.00;96667.31;5013301;28;20296;-70
2023/12/07 09:50:18;;;;;;;12.23;5.23;;;;;;;4.57;100.00;96664.97;5018972;28;20315;-70
2023/12/07 09:52:48;;;;;;;11.57;4.60;;;;;;;4.53;100.00;96667.03;5017702;28;20237;-70
2023/12/07 09:55:17;;;;;;;13.23;5.33;;;;;;;4.02;100.00;96660.16;5017839;28;20213;-70
2023/12/07 09:57:43;;;;;;;16.53;6.37;;;;;;;3.83;100.00;96653.97;5016278;28;20572;-70
2023/12/07 10:00:14;;;;;;;12.50;5.67;;;;;;;4.25;100.00;96652.06;5006448;28;20575;-71
2023/12/07 10:02:42;;;;;;;11.17;5.07;;;;;;;4.31;100.00;96654.13;4999459;28;20275;-71
2023/12/07 10:05:10;;;;;;;14.37;5.40;;;;;;;4.55;100.00;96643.41;4999305;28;20241;-71
2023/12/07 10:07:40;;;;;;;13.20;5.50;;;;;;;4.39;100.00;96640.44;5000867;28;20202;-71
2023/12/07 10:10:11;;;;;;;14.20;6.23;;;;;;;4.49;100.00;96639.56;5000528;28;20229;-71
2023/12/07 10:12:46;;;;;;;16.47;5.67;;;;;;;4.58;100.00;96627.47;4998735;28;20230;-71
2023/12/07 10:15:14;;;;;;;13.37;5.43;;;;;;;4.48;100.00;96619.63;5013348;28;20570;-70
2023/12/07 10:17:47;;;;;;;11.40;5.50;;;;;;;4.97;100.00;96617.03;5025307;28;20206;-70
2023/12/07 10:20:15;;;;;;;12.23;5.17;;;;;;;4.79;100.00;96610.81;5022030;28;20227;-70
2023/12/07 10:22:42;;;;;;;12.70;5.63;;;;;;;4.17;100.00;96604.09;5023096;28;20281;-70
2023/12/07 10:25:11;;;;;;;10.80;5.30;;;;;;;4.77;100.00;96602.28;5020896;28;20264;-71
2023/12/07 10:27:40;;;;;;;11.47;4.97;;;;;;;4.82;100.00;96599.28;5025415;28;20216;-70
2023/12/07 10:30:09;;;;;;;15.57;5.80;;;;;;;4.92;100.00;96606.97;5020655;28;20236;-70
2023/12/07 10:32:37;;;;;;;11.50;5.13;;;;;;;5.20;100.00;96593.16;5004144;28;20229;-71
2023/12/07 10:35:05;;;;;;;11.07;5.40;;;;;;;5.17;100.00;96601.28;5005803;28;20324;-71
2023/12/07 10:37:31;;;;;;;11.23;5.37;;;;;;;5.13;100.00;96599.91;5002472;28;20297;-72
2023/12/07 10:39:58;;;;;;;12.60;5.27;;;;;;;5.44;100.00;96590.97;4997828;28;21092;-71
2023/12/07 10:42:31;;;;;;;12.17;5.33;;;;;;;5.74;100.00;96575.13;4999798;28;20207;-71
2023/12/07 10:45:03;;;;;;;10.30;5.07;;;;;;;5.83;100.00;96576.94;5004142;28;20340;-72
2023/12/07 10:47:30;;;;;;;7.93;4.33;;;;;;;5.87;100.00;96573.06;5003345;28;20206;-71
2023/12/07 10:50:01;;;;;;;10.53;5.33;;;;;;;6.05;100.00;96565.19;5001167;28;20230;-72
2023/12/07 10:52:32;;;;;;;10.97;4.40;;;;;;;6.12;100.00;96562.81;5004047;28;20228;-71
2023/12/07 10:55:04;;;;;;;9.93;4.40;;;;;;;6.17;100.00;96558.84;5007167;28;20207;-70
2023/12/07 10:57:34;;;;;;;9.03;4.00;;;;;;;6.33;100.00;96564.28;5004729;28;21058;-69
2023/12/07 11:00:01;;;;;;;13.87;3.80;;;;;;;6.30;100.00;96554.09;4997605;28;20226;-70
2023/12/07 11:02:28;;;;;;;11.87;4.63;;;;;;;6.47;100.00;96552.53;4998446;28;20199;-70
2023/12/07 11:04:57;;;;;;;11.53;4.70;;;;;;;6.53;100.00;96542.31;4997379;28;20207;-69
2023/12/07 11:07:28;;;;;;;8.83;3.97;;;;;;;6.61;100.00;96531.91;5000522;28;20207;-69
2023/12/07 11:10:03;;;;;;;12.43;4.67;;;;;;;6.60;100.00;96532.06;5016034;28;20218;-69
2023/12/07 11:12:39;;;;;;;9.97;4.27;;;;;;;7.23;100.00;96521.44;5030663;28;20584;-69
2023/12/07 11:15:06;;;;;;;13.60;4.40;;;;;;;6.96;100.00;96527.59;5017838;28;20313;-69
2023/12/07 11:17:50;;;;;;;9.93;3.93;;;;;;;6.61;100.00;96542.38;5008646;28;20644;-70
2023/12/07 11:20:20;;;;;;;9.43;4.37;;;;;;;6.18;100.00;96543.97;5006561;28;20253;-70
2023/12/07 11:22:48;;;;;;;11.60;4.87;;;;;;;6.13;100.00;96533.91;5012538;28;20258;-69
2023/12/07 11:25:15;;;;;;;8.30;4.37;;;;;;;6.41;100.00;96524.31;5014769;28;20198;-70
2023/12/07 11:27:46;;;;;;;7.50;3.90;;;;;;;6.57;100.00;96533.19;5015495;28;21163;-69